Aérodrome :
LOGIN :

S'inscrire | Disclaimer

   EN    FR    IT 

 










Légende :    VFR   VFR Marginal   IFR   IFR Intensif   IFR Très Intensif
Visi : 
Plafond : 
>= 8 km
>= 3000ft
5 à 8 km
1000 à 3000 ft
1500m à 5 km
500 à 1000 ft
800 à 1500m
200 à 500 ft
< 800m
< 200 ft
Symboles :   Orages  Brouillard  Fortes neiges  Fortes précipitations  Vent > 20 kt
SIGMETs :   Divers  Orages  Givrage  Turbulence  Onde Orograph.  Cendres Volcan.







- Altitude de l'aérodrome : 574 ft
- Code IATA : NDR


GMMW - Nador El Aroui

DERNIER METAR :
  • 182000Z 34001KT 9999 SCT020 SCT033 14/10 Q1010 NOSIG

METARs EXPIRÉS :
  • 181900Z 10005KT 070V130 9999 SCT020 SCT033 15/11 Q1010 NOSIG
  • 181800Z 05007KT 9999 FEW020 FEW023TCU SCT033 17/11 Q1010 NOSIG

TAF TAF GMMW
Valide du 18 à 18h jusqu'au 20 à 00h UTC


181700Z 1818/1924 04009KT 8000 SCT030
BECMG 1821/1823 SCT016 BKN200
Pas de NOTAMs connus pour ce terrain.
1 SIGMET publié pour la FIR Casablanca (GMMM) :
 
Orages noyés dans la masse
GMMM SIGMET 06 VALID 181730/182130 GMMC
GMMM CASABLANCA FIR EMBD TS OBS N OF LINE N3512 W00318 - N3321 W0054 9 - N3245 W00905 - N3427 W01158 TOP FL280 MOV E NC=



MET'MAP, la Météo Aéronautique d'un coup d'oeil ! - Copyright ORBIFLY Décembre 2007 - Disclaimer

ORBIFLY MET'MAP TEAM :

Programmation & Développement : Alexandra Zaïnal
Conception & Développement : Baudouin d'Aumeries
Co-Programmation & Développement : Marc-Olivier Méhu
Soutien technique & logistique : Manuel Goepfert

Contact : metmap@orbifly.com




SOURCES & CREDITS :

   NOAA